createdAt,value
2017-10-15T00:01:53.253Z,11.40
2017-10-15T00:04:20.875Z,11.30
2017-10-15T00:09:16.169Z,11.40
2017-10-15T00:11:43.794Z,11.40
2017-10-15T00:14:11.419Z,11.30
2017-10-15T00:16:39.118Z,11.30
2017-10-15T00:19:06.740Z,11.10
2017-10-15T00:21:35.174Z,11.00
2017-10-15T00:24:02.867Z,11.10
2017-10-15T00:26:30.486Z,11.10
2017-10-15T00:28:58.126Z,11.10
2017-10-15T00:31:25.808Z,11.10
2017-10-15T00:33:53.439Z,11.00
2017-10-15T00:36:21.061Z,10.90
2017-10-15T00:38:48.755Z,10.90
2017-10-15T00:43:55.503Z,10.80
2017-10-15T00:46:23.123Z,10.70
2017-10-15T00:48:50.745Z,10.70
2017-10-15T00:53:46.044Z,10.80
2017-10-15T00:56:13.664Z,10.80
2017-10-15T00:58:42.167Z,10.80
2017-10-15T01:01:09.808Z,10.80
2017-10-15T01:03:37.420Z,10.70
2017-10-15T01:06:05.117Z,10.40
2017-10-15T01:08:32.760Z,10.10
2017-10-15T01:11:00.379Z,9.90
2017-10-15T01:13:28.051Z,10.00
2017-10-15T01:18:23.291Z,10.10
2017-10-15T01:20:50.959Z,10.00
2017-10-15T01:23:18.583Z,10.10
2017-10-15T01:25:46.207Z,10.00
2017-10-15T01:28:13.876Z,9.60
2017-10-15T01:30:41.494Z,9.50
2017-10-15T01:33:09.111Z,9.60
2017-10-15T01:35:36.792Z,9.80
2017-10-15T01:38:04.413Z,9.90
2017-10-15T01:40:32.032Z,10.00
2017-10-15T01:42:59.720Z,10.10
2017-10-15T01:45:27.339Z,10.20
2017-10-15T01:47:54.959Z,10.20
2017-10-15T01:50:22.634Z,10.20
2017-10-15T01:52:50.264Z,10.20
2017-10-15T01:55:17.882Z,10.30
2017-10-15T02:02:54.368Z,10.20
2017-10-15T02:07:49.609Z,10.20
2017-10-15T02:12:44.899Z,10.20
2017-10-15T02:15:12.518Z,10.20
2017-10-15T02:17:40.294Z,10.20
2017-10-15T02:20:07.925Z,10.20
2017-10-15T02:22:35.530Z,10.20
2017-10-15T02:25:03.229Z,10.10
2017-10-15T02:27:30.850Z,9.90
2017-10-15T02:29:58.476Z,10.00
2017-10-15T02:32:26.149Z,9.90
2017-10-15T02:34:53.770Z,9.90
2017-10-15T02:37:21.380Z,9.90
2017-10-15T02:39:49.049Z,9.90
2017-10-15T02:42:16.663Z,9.90
2017-10-15T02:44:44.285Z,9.80
2017-10-15T02:47:11.955Z,9.80
2017-10-15T02:52:07.448Z,9.80
2017-10-15T02:54:35.120Z,9.80
2017-10-15T02:57:02.734Z,9.80
2017-10-15T02:59:30.353Z,9.60
2017-10-15T03:01:58.037Z,9.50
2017-10-15T03:04:25.651Z,9.50
2017-10-15T03:06:53.267Z,9.40
2017-10-15T03:09:20.963Z,9.40
2017-10-15T03:11:48.584Z,9.40
2017-10-15T03:14:17.141Z,9.50
2017-10-15T03:16:44.825Z,9.40
2017-10-15T03:19:12.438Z,9.10
2017-10-15T03:21:40.049Z,9.10
2017-10-15T03:24:07.743Z,9.10
2017-10-15T03:26:35.365Z,9.20
2017-10-15T03:31:44.135Z,9.30
2017-10-15T03:34:11.776Z,9.40
2017-10-15T03:36:39.388Z,9.50
2017-10-15T03:39:07.072Z,9.50
2017-10-15T03:41:34.685Z,9.40
2017-10-15T03:44:02.440Z,9.50
2017-10-15T03:46:30.112Z,9.40
2017-10-15T03:48:57.735Z,9.50
2017-10-15T03:51:25.347Z,9.40
2017-10-15T03:53:53.045Z,9.40
2017-10-15T03:56:20.665Z,9.40
2017-10-15T03:58:48.284Z,9.30
2017-10-15T04:01:15.951Z,9.30
2017-10-15T04:03:43.592Z,9.30
2017-10-15T04:06:11.211Z,9.20
2017-10-15T04:08:38.901Z,9.30
2017-10-15T04:11:06.519Z,9.20
2017-10-15T04:13:34.144Z,9.10
2017-10-15T04:16:01.807Z,9.00
2017-10-15T04:18:29.424Z,9.10
2017-10-15T04:20:57.037Z,9.10
2017-10-15T04:23:24.728Z,9.10
2017-10-15T04:25:52.345Z,9.00
2017-10-15T04:28:19.959Z,9.10
2017-10-15T04:30:47.623Z,9.10
2017-10-15T04:33:15.241Z,9.10
2017-10-15T04:35:43.589Z,9.10
2017-10-15T04:38:11.262Z,9.20
2017-10-15T04:40:38.876Z,9.20
2017-10-15T04:48:02.628Z,8.90
2017-10-15T04:50:30.245Z,8.90
2017-10-15T04:58:04.686Z,9.00
2017-10-15T05:00:32.306Z,9.10
2017-10-15T05:02:59.923Z,9.20
2017-10-15T05:05:27.629Z,9.10
2017-10-15T05:07:55.246Z,8.90
2017-10-15T05:10:22.878Z,8.80
2017-10-15T05:12:50.539Z,8.90
2017-10-15T05:15:18.180Z,8.90
2017-10-15T05:17:45.792Z,9.00
2017-10-15T05:20:13.468Z,9.00
2017-10-15T05:22:41.093Z,8.90
2017-10-15T05:25:08.720Z,9.00
2017-10-15T05:27:36.424Z,8.80
2017-10-15T05:30:04.045Z,8.80
2017-10-15T05:32:32.022Z,8.80
2017-10-15T05:34:59.585Z,8.80
2017-10-15T05:37:28.052Z,8.90
2017-10-15T05:39:55.673Z,8.80
2017-10-15T05:42:23.357Z,8.80
2017-10-15T05:44:50.973Z,8.80
2017-10-15T05:47:19.433Z,8.90
2017-10-15T05:49:47.126Z,8.90
2017-10-15T05:52:14.737Z,8.70
2017-10-15T05:54:42.347Z,8.70
2017-10-15T05:57:10.020Z,8.70
2017-10-15T05:59:37.645Z,8.70
2017-10-15T06:02:05.273Z,8.70
2017-10-15T06:04:32.971Z,8.80
2017-10-15T06:07:00.601Z,8.80
2017-10-15T06:09:28.218Z,8.80
2017-10-15T06:11:55.895Z,8.80
2017-10-15T06:14:23.520Z,8.80
2017-10-15T06:16:51.976Z,8.80
2017-10-15T06:19:19.645Z,8.70
2017-10-15T06:24:26.434Z,9.00
2017-10-15T06:26:54.054Z,9.20
2017-10-15T06:29:21.682Z,9.50
2017-10-15T06:31:49.357Z,9.70
2017-10-15T06:34:17.016Z,9.80
2017-10-15T06:36:44.643Z,10.00
2017-10-15T06:39:12.351Z,10.10
2017-10-15T06:41:40.028Z,10.20
2017-10-15T06:44:07.676Z,10.30
2017-10-15T06:46:35.387Z,10.50
2017-10-15T06:49:03.007Z,10.60
2017-10-15T06:51:30.666Z,10.70
2017-10-15T06:53:58.367Z,10.80
2017-10-15T06:56:26.968Z,11.00
2017-10-15T06:58:54.599Z,11.00
2017-10-15T07:01:22.288Z,11.00
2017-10-15T07:03:50.742Z,11.10
2017-10-15T07:06:18.361Z,11.20
2017-10-15T07:08:46.036Z,11.20
2017-10-15T07:11:13.659Z,11.50
2017-10-15T07:13:41.278Z,11.70
2017-10-15T07:16:09.725Z,12.10
2017-10-15T07:18:37.364Z,12.40
2017-10-15T07:21:04.995Z,12.70
2017-10-15T07:23:32.671Z,12.60
2017-10-15T07:26:00.300Z,12.50
2017-10-15T07:28:27.920Z,13.00
2017-10-15T07:30:55.596Z,13.10
2017-10-15T07:33:23.242Z,13.10
2017-10-15T07:35:50.842Z,13.30
2017-10-15T07:38:18.578Z,13.70
2017-10-15T07:40:46.173Z,13.30
2017-10-15T07:43:13.836Z,12.90
2017-10-15T07:45:41.517Z,13.00
2017-10-15T07:50:48.310Z,13.60
2017-10-15T07:53:15.940Z,13.50
2017-10-15T07:55:43.565Z,14.10
2017-10-15T07:58:11.255Z,14.70
2017-10-15T08:03:07.440Z,14.60
2017-10-15T08:05:35.544Z,14.90
2017-10-15T08:08:03.062Z,14.90
2017-10-15T08:10:30.688Z,15.10
2017-10-15T08:12:58.362Z,15.50
2017-10-15T08:15:26.010Z,15.90
2017-10-15T08:17:53.636Z,15.60
2017-10-15T08:20:21.329Z,15.80
2017-10-15T08:22:48.957Z,15.90
2017-10-15T08:25:16.576Z,16.00
2017-10-15T08:27:44.280Z,16.30
2017-10-15T08:30:11.883Z,16.40
2017-10-15T08:32:39.527Z,16.50
2017-10-15T08:35:08.039Z,17.00
2017-10-15T08:37:35.673Z,16.90
2017-10-15T08:40:03.324Z,17.40
2017-10-15T08:42:31.018Z,17.90
2017-10-15T08:44:58.641Z,17.30
2017-10-15T08:47:26.264Z,16.50
2017-10-15T08:49:54.497Z,15.90
2017-10-15T08:52:22.130Z,16.00
2017-10-15T08:54:51.923Z,16.80
2017-10-15T08:57:20.093Z,17.00
2017-10-15T08:59:47.295Z,17.20
2017-10-15T09:02:14.993Z,17.50
2017-10-15T09:04:42.673Z,17.90
2017-10-15T09:07:10.322Z,17.80
2017-10-15T09:09:38.905Z,18.50
2017-10-15T09:12:07.643Z,18.70
2017-10-15T09:17:14.504Z,18.40
2017-10-15T09:19:42.121Z,18.10
2017-10-15T09:22:09.743Z,17.40
2017-10-15T09:24:37.448Z,17.90
2017-10-15T09:27:05.073Z,18.20
2017-10-15T09:29:32.691Z,18.80
2017-10-15T09:32:00.385Z,19.10
2017-10-15T09:34:28.842Z,19.90
2017-10-15T09:36:56.463Z,20.10
2017-10-15T09:39:24.155Z,19.10
2017-10-15T09:41:51.776Z,19.90
2017-10-15T09:44:19.398Z,19.60
2017-10-15T09:46:47.102Z,20.50
2017-10-15T09:49:14.726Z,20.40
2017-10-15T09:51:42.348Z,20.00
2017-10-15T09:54:10.027Z,20.00
2017-10-15T09:56:37.655Z,19.70
2017-10-15T09:59:05.276Z,19.50
2017-10-15T10:01:32.954Z,19.70
2017-10-15T10:04:00.585Z,20.00
2017-10-15T10:06:28.207Z,20.60
2017-10-15T10:08:55.897Z,20.30
2017-10-15T10:11:23.518Z,19.80
2017-10-15T10:13:51.143Z,20.50
2017-10-15T10:16:19.659Z,20.70
2017-10-15T10:18:47.292Z,20.50
2017-10-15T10:21:14.925Z,20.40
2017-10-15T10:23:42.629Z,21.30
2017-10-15T10:26:10.252Z,21.30
2017-10-15T10:28:37.877Z,22.10
2017-10-15T10:31:05.578Z,22.30
2017-10-15T10:33:33.208Z,22.00
2017-10-15T10:38:28.511Z,21.30
2017-10-15T10:40:56.124Z,21.70
2017-10-15T10:46:04.895Z,21.90
2017-10-15T10:48:32.517Z,22.00
2017-10-15T10:51:00.758Z,22.10
2017-10-15T10:53:28.703Z,22.90
2017-10-15T10:55:56.085Z,22.30
2017-10-15T10:58:23.704Z,23.20
2017-10-15T11:00:52.216Z,23.50
2017-10-15T11:03:19.841Z,23.60
2017-10-15T11:05:47.479Z,24.10
2017-10-15T11:08:15.164Z,23.60
2017-10-15T11:10:42.799Z,23.80
2017-10-15T11:13:10.425Z,24.00
2017-10-15T11:15:38.105Z,23.30
2017-10-15T11:18:05.756Z,23.20
2017-10-15T11:20:34.335Z,22.90
2017-10-15T11:23:02.033Z,23.30
2017-10-15T11:25:29.660Z,22.40
2017-10-15T11:27:57.293Z,22.20
2017-10-15T11:30:24.987Z,22.80
2017-10-15T11:32:52.611Z,23.60
2017-10-15T11:35:20.234Z,22.80
2017-10-15T11:37:48.784Z,23.40
2017-10-15T11:40:16.419Z,23.90
2017-10-15T11:42:44.030Z,23.30
2017-10-15T11:45:12.579Z,24.00
2017-10-15T11:47:40.202Z,24.10
2017-10-15T11:50:07.862Z,24.20
2017-10-15T11:52:35.555Z,24.30
2017-10-15T11:55:03.162Z,24.40
2017-10-15T11:57:31.756Z,24.50
2017-10-15T11:59:59.445Z,24.20
2017-10-15T12:02:27.069Z,24.60
2017-10-15T12:04:54.750Z,25.10
2017-10-15T12:07:23.356Z,24.60
2017-10-15T12:09:51.924Z,24.80
2017-10-15T12:17:26.348Z,26.00
2017-10-15T12:22:25.737Z,24.90
2017-10-15T12:24:53.424Z,25.50
2017-10-15T12:27:21.047Z,25.70
2017-10-15T12:29:49.419Z,26.10
2017-10-15T12:32:17.970Z,25.80
2017-10-15T12:34:45.589Z,26.50
2017-10-15T12:37:13.217Z,26.80
2017-10-15T12:39:40.927Z,26.30
2017-10-15T12:42:08.555Z,25.60
2017-10-15T12:44:36.468Z,25.10
2017-10-15T12:47:04.020Z,24.70
2017-10-15T12:49:31.638Z,24.10
2017-10-15T12:51:59.263Z,24.00
2017-10-15T12:56:54.591Z,26.20
2017-10-15T12:59:22.210Z,25.90
2017-10-15T13:01:49.893Z,24.90
2017-10-15T13:04:17.763Z,24.80
2017-10-15T13:06:45.356Z,24.80
2017-10-15T13:09:13.040Z,25.10
2017-10-15T13:11:40.665Z,24.50
2017-10-15T13:14:08.420Z,24.30
2017-10-15T13:16:36.005Z,25.00
2017-10-15T13:19:03.646Z,24.50
2017-10-15T13:21:31.276Z,24.20
2017-10-15T13:23:58.970Z,23.90
2017-10-15T13:26:26.593Z,23.90
2017-10-15T13:34:03.000Z,24.10
2017-10-15T13:36:30.628Z,24.70
2017-10-15T13:38:58.329Z,24.90
2017-10-15T13:41:25.974Z,24.50
2017-10-15T13:43:53.607Z,23.70
2017-10-15T13:46:22.141Z,23.90
2017-10-15T13:48:49.778Z,23.40
2017-10-15T13:51:17.426Z,23.60
2017-10-15T13:53:45.165Z,23.60
2017-10-15T13:56:13.632Z,24.00
2017-10-15T13:58:41.253Z,23.70
2017-10-15T14:01:08.967Z,23.80
2017-10-15T14:03:36.589Z,23.90
2017-10-15T14:06:04.217Z,23.80
2017-10-15T14:08:31.903Z,23.90
2017-10-15T14:10:59.554Z,23.70
2017-10-15T14:13:27.204Z,23.60
2017-10-15T14:15:54.885Z,23.40
2017-10-15T14:18:22.520Z,23.70
2017-10-15T14:20:50.150Z,23.60
2017-10-15T14:23:17.834Z,23.70
2017-10-15T14:25:45.471Z,24.20
2017-10-15T14:28:13.088Z,23.80
2017-10-15T14:30:40.801Z,23.60
2017-10-15T14:33:08.421Z,23.10
2017-10-15T14:35:36.062Z,23.10
2017-10-15T14:38:03.744Z,23.50
2017-10-15T14:40:31.387Z,23.50
2017-10-15T14:42:59.835Z,23.70
2017-10-15T14:50:34.303Z,23.50
2017-10-15T14:53:01.929Z,23.60
2017-10-15T14:55:29.545Z,23.50
2017-10-15T14:57:57.229Z,23.40
2017-10-15T15:00:24.856Z,23.90
2017-10-15T15:02:53.205Z,23.60
2017-10-15T15:05:20.888Z,23.50
2017-10-15T15:07:48.511Z,23.70
2017-10-15T15:10:16.139Z,23.50
2017-10-15T15:12:43.816Z,23.40
2017-10-15T15:15:11.448Z,23.20
2017-10-15T15:17:39.080Z,23.10
2017-10-15T15:20:06.761Z,23.00
2017-10-15T15:22:34.393Z,23.00
2017-10-15T15:25:02.011Z,22.70
2017-10-15T15:27:29.719Z,22.50
2017-10-15T15:32:24.979Z,22.30
2017-10-15T15:34:52.689Z,22.10
2017-10-15T15:37:20.319Z,22.00
2017-10-15T15:39:47.959Z,21.90
2017-10-15T15:42:15.644Z,21.90
2017-10-15T15:44:44.107Z,21.90
2017-10-15T15:47:11.732Z,22.00
2017-10-15T15:49:39.452Z,22.00
2017-10-15T15:54:49.361Z,21.80
2017-10-15T15:57:16.985Z,21.90
2017-10-15T15:59:44.620Z,22.10
2017-10-15T16:02:12.329Z,22.20
2017-10-15T16:04:39.947Z,22.10
2017-10-15T16:07:07.588Z,22.10
2017-10-15T16:09:36.237Z,21.60
2017-10-15T16:12:03.861Z,21.30
2017-10-15T16:14:31.484Z,21.20
2017-10-15T16:16:59.163Z,21.40
2017-10-15T16:19:26.788Z,21.30
2017-10-15T16:21:55.347Z,21.30
2017-10-15T16:24:23.027Z,21.10
2017-10-15T16:26:50.649Z,20.80
2017-10-15T16:29:18.281Z,20.50
2017-10-15T16:31:45.977Z,20.10
2017-10-15T16:34:13.594Z,20.00
2017-10-15T16:36:41.240Z,19.80
2017-10-15T16:39:08.943Z,19.70
2017-10-15T16:41:36.568Z,19.70
2017-10-15T16:44:04.192Z,19.90
2017-10-15T16:48:59.504Z,19.90
2017-10-15T16:51:27.415Z,20.00
2017-10-15T16:53:55.879Z,20.00
2017-10-15T16:56:23.603Z,19.70
2017-10-15T16:58:51.119Z,19.90
2017-10-15T17:01:18.826Z,20.00
2017-10-15T17:03:46.450Z,20.00
2017-10-15T17:06:14.061Z,20.00
2017-10-15T17:13:37.064Z,19.80
2017-10-15T17:16:04.767Z,19.60
2017-10-15T17:21:13.576Z,19.50
2017-10-15T17:23:41.200Z,19.40
2017-10-15T17:26:08.821Z,19.40
2017-10-15T17:28:36.498Z,19.40
2017-10-15T17:31:04.119Z,19.30
2017-10-15T17:33:32.472Z,19.20
2017-10-15T17:36:00.160Z,19.20
2017-10-15T17:38:27.790Z,19.10
2017-10-15T17:40:55.427Z,19.10
2017-10-15T17:43:23.252Z,18.90
2017-10-15T17:45:50.985Z,18.80
2017-10-15T17:48:18.550Z,18.80
2017-10-15T17:50:46.247Z,18.80
2017-10-15T17:53:13.881Z,18.70
2017-10-15T17:55:41.686Z,18.80
2017-10-15T17:58:09.414Z,18.70
2017-10-15T18:03:05.535Z,18.50
2017-10-15T18:05:33.211Z,18.30
2017-10-15T18:08:00.852Z,18.30
2017-10-15T18:10:29.217Z,18.30
2017-10-15T18:12:56.925Z,18.10
2017-10-15T18:15:24.575Z,18.10
2017-10-15T18:17:52.209Z,18.00
2017-10-15T18:20:19.874Z,18.10
2017-10-15T18:22:47.519Z,17.80
2017-10-15T18:25:15.164Z,17.60
2017-10-15T18:27:42.851Z,17.80
2017-10-15T18:32:51.623Z,18.00
2017-10-15T18:35:19.981Z,18.10
2017-10-15T18:37:49.456Z,18.20
2017-10-15T18:40:17.225Z,18.10
2017-10-15T18:42:44.870Z,18.10
2017-10-15T18:45:12.508Z,18.00
2017-10-15T18:47:40.220Z,17.80
2017-10-15T18:50:07.832Z,17.90
2017-10-15T18:52:35.462Z,17.80
2017-10-15T18:55:03.234Z,17.80
2017-10-15T18:57:30.984Z,17.80
2017-10-15T18:59:59.444Z,17.60
2017-10-15T19:02:27.114Z,17.60
2017-10-15T19:04:54.745Z,17.50
2017-10-15T19:07:22.416Z,17.40
2017-10-15T19:09:50.178Z,17.30
2017-10-15T19:12:18.695Z,17.20
2017-10-15T19:14:46.508Z,16.90
2017-10-15T19:17:14.240Z,16.60
2017-10-15T19:19:42.070Z,16.60
2017-10-15T19:22:10.681Z,16.40
2017-10-15T19:24:38.542Z,16.40
2017-10-15T19:27:06.161Z,16.40
2017-10-15T19:29:33.785Z,16.50
2017-10-15T19:34:29.364Z,16.30
2017-10-15T19:39:25.078Z,15.90
2017-10-15T19:41:53.822Z,16.00
2017-10-15T19:44:21.375Z,16.00
2017-10-15T19:49:30.181Z,15.80
2017-10-15T19:51:57.966Z,15.80
2017-10-15T19:54:25.637Z,15.80
2017-10-15T19:56:53.258Z,15.70
2017-10-15T19:59:20.952Z,15.50
2017-10-15T20:01:49.471Z,15.30
2017-10-15T20:09:12.638Z,15.20
2017-10-15T20:11:40.480Z,15.20
2017-10-15T20:14:08.274Z,15.00
2017-10-15T20:19:03.669Z,15.10
2017-10-15T20:21:31.339Z,15.00
2017-10-15T20:23:59.037Z,14.90
2017-10-15T20:26:26.666Z,14.80
2017-10-15T20:28:54.295Z,14.60
2017-10-15T20:31:22.147Z,14.60
2017-10-15T20:33:49.771Z,14.70
2017-10-15T20:36:17.429Z,14.80
2017-10-15T20:38:45.137Z,14.80
2017-10-15T20:41:13.489Z,14.80
2017-10-15T20:43:41.187Z,14.90
2017-10-15T20:46:08.864Z,14.90
2017-10-15T20:48:36.514Z,14.80
2017-10-15T20:51:04.160Z,14.90
2017-10-15T20:53:31.853Z,14.90
2017-10-15T20:58:27.191Z,14.90
2017-10-15T21:00:54.897Z,14.90
2017-10-15T21:03:22.516Z,14.90
2017-10-15T21:05:50.144Z,14.80
2017-10-15T21:08:17.880Z,14.70
2017-10-15T21:10:45.515Z,14.80
2017-10-15T21:13:13.143Z,14.80
2017-10-15T21:18:20.023Z,14.70
2017-10-15T21:20:47.976Z,14.70
2017-10-15T21:23:15.590Z,14.80
2017-10-15T21:25:44.191Z,14.70
2017-10-15T21:28:11.871Z,14.50
2017-10-15T21:30:40.401Z,14.50
2017-10-15T21:33:08.012Z,14.30
2017-10-15T21:35:35.724Z,14.20
2017-10-15T21:38:03.348Z,14.20
2017-10-15T21:40:30.978Z,14.10
2017-10-15T21:42:58.697Z,14.00
2017-10-15T21:45:26.292Z,14.00
2017-10-15T21:47:53.913Z,13.90
2017-10-15T21:50:21.588Z,13.60
2017-10-15T21:52:49.233Z,13.40
2017-10-15T21:55:16.866Z,13.50
2017-10-15T21:57:44.523Z,13.60
2017-10-15T22:00:12.174Z,13.70
2017-10-15T22:02:39.794Z,13.60
2017-10-15T22:05:07.465Z,13.70
2017-10-15T22:07:35.087Z,13.60
2017-10-15T22:10:03.232Z,13.50
2017-10-15T22:12:31.049Z,13.40
2017-10-15T22:14:58.548Z,13.40
2017-10-15T22:17:26.167Z,13.40
2017-10-15T22:19:53.889Z,13.50
2017-10-15T22:22:25.624Z,13.40
2017-10-15T22:24:53.148Z,13.40
2017-10-15T22:27:20.910Z,13.40
2017-10-15T22:29:48.396Z,13.30
2017-10-15T22:32:16.077Z,13.20
2017-10-15T22:34:43.704Z,13.30
2017-10-15T22:37:11.317Z,13.30
2017-10-15T22:42:18.115Z,13.10
2017-10-15T22:44:45.801Z,13.20
2017-10-15T22:47:13.424Z,13.20
2017-10-15T22:49:41.093Z,13.10
2017-10-15T22:52:08.808Z,13.00
2017-10-15T22:54:36.420Z,13.00
2017-10-15T22:57:04.917Z,13.00
2017-10-15T22:59:32.600Z,12.90
2017-10-15T23:02:00.224Z,12.80
2017-10-15T23:04:28.630Z,12.80
2017-10-15T23:06:56.306Z,12.70
2017-10-15T23:09:23.928Z,12.60
2017-10-15T23:11:51.548Z,12.60
2017-10-15T23:14:19.257Z,12.60
2017-10-15T23:16:46.868Z,12.50
2017-10-15T23:19:15.309Z,12.40
2017-10-15T23:21:43.011Z,12.40
2017-10-15T23:24:10.645Z,12.40
2017-10-15T23:26:38.253Z,12.40
2017-10-15T23:29:05.935Z,12.40
2017-10-15T23:31:33.561Z,12.40
2017-10-15T23:36:28.889Z,12.40
2017-10-15T23:38:56.519Z,12.30
2017-10-15T23:41:24.144Z,12.30
2017-10-15T23:43:51.831Z,12.30
2017-10-15T23:46:19.452Z,12.30
2017-10-15T23:48:47.068Z,12.20
2017-10-15T23:51:14.776Z,12.30
2017-10-15T23:53:43.343Z,12.30
2017-10-15T23:56:10.965Z,12.10
2017-10-15T23:58:38.684Z,12.00
